Long Branch, Illinois
Current Conditions -  °F | °C
As of 12:35 PM on Monday 26 Jan 2015 (Local Time) from KHSB Reporting Station
Overcast Overcast  
Wind Chill: 24°   Ceiling: 2300
Heat Index: 32°   Visibility: 10mi
Dew Point: 26°   Wind: 9mph
Humidity: 77%   Direction: 280°W
Pressure: 30"   Gusts: NA
Location:  37.8301°N, 88.6284°W
Report Text: KHSB 261835Z AUTO 28008KT 10SM OVC023 00/M04 A3000 RMK AO2 T00001036
Loading
Personal Weather Stations






























Interactive Weather Map New forecast layout! Learn more

10-Day Weather Forecast

Advertisements
Track Severe Weather on mobile